Time;durP1;ratioP1;P1;durP2;ratioP2;P2;SDS_P1;SDS_P2;PMS_P1;PMS_P2;Temp;Humidity;BMP_temperature;BMP_pressure;BME280_temperature;BME280_humidity;BME280_pressure;Samples;Min_cycle;Max_cycle;Signal;HPM_P1;HPM_P2
2023/08/31 00:01:40;;;;;;;17.80;12.63;;;;;;;;;;5110697;28;20054;-73
2023/08/31 00:04:14;;;;;;;15.02;11.82;;;;;;;;;;5112547;28;20023;-73
2023/08/31 00:06:40;;;;;;;14.55;10.88;;;;;;;;;;5113560;28;20487;-73
2023/08/31 00:09:09;;;;;;;15.05;11.55;;;;;;;;;;5113614;28;20153;-74
2023/08/31 00:11:36;;;;;;;14.23;10.93;;;;;;;;;;5113462;28;20039;-74
2023/08/31 00:14:02;;;;;;;15.68;11.15;;;;;;;;;;5113194;28;20028;-74
2023/08/31 00:16:29;;;;;;;16.17;11.60;;;;;;;;;;5113386;28;20024;-74
2023/08/31 00:18:56;;;;;;;13.93;10.98;;;;;;;;;;5113510;28;20045;-73
2023/08/31 00:21:22;;;;;;;14.52;11.35;;;;;;;;;;5113722;28;20023;-74
2023/08/31 00:23:48;;;;;;;14.48;11.27;;;;;;;;;;5113094;28;20019;-74
2023/08/31 00:26:14;;;;;;;15.02;10.45;;;;;;;;;;5113392;28;20045;-75
2023/08/31 00:28:42;;;;;;;15.07;10.75;;;;;;;;;;5113358;28;20031;-75
2023/08/31 00:31:08;;;;;;;15.00;10.55;;;;;;;;;;5113247;28;20036;-73
2023/08/31 00:33:34;;;;;;;13.30;9.82;;;;;;;;;;5112897;28;20015;-72
2023/08/31 00:36:01;;;;;;;14.70;11.20;;;;;;;;;;5113027;28;20541;-73
2023/08/31 00:38:27;;;;;;;16.10;10.73;;;;;;;;;;5113110;28;20503;-73
2023/08/31 00:40:54;;;;;;;14.55;11.48;;;;;;;;;;5113284;28;20016;-73
2023/08/31 00:43:20;;;;;;;16.40;11.23;;;;;;;;;;5112822;28;20028;-74
2023/08/31 00:45:49;;;;;;;16.98;12.00;;;;;;;;;;5112988;28;20028;-73
2023/08/31 00:48:19;;;;;;;14.15;11.32;;;;;;;;;;5112942;28;20477;-74
2023/08/31 00:50:49;;;;;;;16.63;12.00;;;;;;;;;;5110199;27;20071;-74
2023/08/31 00:53:16;;;;;;;14.63;11.45;;;;;;;;;;5094898;28;20119;-74
2023/08/31 00:55:42;;;;;;;17.10;13.10;;;;;;;;;;5113090;27;20420;-74
2023/08/31 00:58:09;;;;;;;19.65;12.38;;;;;;;;;;5091321;28;20025;-73
2023/08/31 01:00:57;;;;;;;19.33;12.75;;;;;;;;;;5116894;27;20356;-73
2023/08/31 01:03:32;;;;;;;16.48;11.85;;;;;;;;;;5095580;27;20035;-73
2023/08/31 01:06:10;;;;;;;19.52;12.65;;;;;;;;;;5111593;27;20028;-73
2023/08/31 01:08:49;;;;;;;17.17;12.48;;;;;;;;;;5091832;27;20050;-73
2023/08/31 01:11:21;;;;;;;16.88;12.30;;;;;;;;;;5123307;27;20050;-73
2023/08/31 01:13:49;;;;;;;18.77;12.48;;;;;;;;;;5106030;28;20043;-73
2023/08/31 01:16:16;;;;;;;18.38;11.52;;;;;;;;;;5114643;27;20032;-74
2023/08/31 01:18:44;;;;;;;17.50;11.70;;;;;;;;;;5099658;28;20048;-74
2023/08/31 01:21:35;;;;;;;17.65;11.38;;;;;;;;;;5124149;27;20019;-74
2023/08/31 01:24:02;;;;;;;21.60;11.90;;;;;;;;;;5080399;28;20019;-75
2023/08/31 01:26:28;;;;;;;18.38;12.27;;;;;;;;;;5118802;27;20027;-74
2023/08/31 01:28:56;;;;;;;20.08;11.93;;;;;;;;;;5105322;28;20089;-73
2023/08/31 01:31:21;;;;;;;19.95;12.13;;;;;;;;;;5123781;28;20502;-74
2023/08/31 01:33:48;;;;;;;13.80;10.48;;;;;;;;;;5091318;28;20024;-73
2023/08/31 01:36:30;;;;;;;17.23;11.20;;;;;;;;;;5104127;28;20043;-73
2023/08/31 01:39:03;;;;;;;16.30;10.80;;;;;;;;;;5091579;28;20374;-73
2023/08/31 01:41:31;;;;;;;15.98;10.88;;;;;;;;;;5122155;28;20098;-73
2023/08/31 01:43:58;;;;;;;19.60;10.63;;;;;;;;;;5091312;28;20435;-73
2023/08/31 01:46:25;;;;;;;16.38;10.77;;;;;;;;;;5104940;28;20032;-73
2023/08/31 01:48:51;;;;;;;12.40;9.77;;;;;;;;;;5091478;28;20419;-74
2023/08/31 01:51:17;;;;;;;20.98;10.65;;;;;;;;;;5090773;28;20037;-74
2023/08/31 01:53:44;;;;;;;19.83;10.32;;;;;;;;;;5091478;28;20043;-74
2023/08/31 01:56:10;;;;;;;13.57;9.73;;;;;;;;;;5091697;28;20027;-74
2023/08/31 01:58:36;;;;;;;13.02;9.20;;;;;;;;;;5091794;28;20035;-74
2023/08/31 02:01:02;;;;;;;11.95;7.85;;;;;;;;;;5092178;28;20043;-76
2023/08/31 02:03:28;;;;;;;14.88;9.13;;;;;;;;;;5105135;28;20469;-74
2023/08/31 02:05:54;;;;;;;15.77;8.73;;;;;;;;;;5111751;28;20028;-74
2023/08/31 02:08:20;;;;;;;14.80;8.88;;;;;;;;;;5111909;28;20077;-73
2023/08/31 02:10:48;;;;;;;16.35;9.25;;;;;;;;;;5113914;28;20065;-74
2023/08/31 02:13:15;;;;;;;15.93;9.07;;;;;;;;;;5115358;28;20450;-75
2023/08/31 02:15:41;;;;;;;17.15;8.98;;;;;;;;;;5115489;28;20020;-73
2023/08/31 02:18:08;;;;;;;15.32;8.85;;;;;;;;;;5115560;28;20084;-74
2023/08/31 02:20:34;;;;;;;13.18;8.52;;;;;;;;;;5114009;28;20024;-73
2023/08/31 02:23:00;;;;;;;12.15;8.60;;;;;;;;;;5114895;28;20079;-74
2023/08/31 02:25:27;;;;;;;17.13;8.25;;;;;;;;;;5115726;28;20024;-74
2023/08/31 02:27:54;;;;;;;17.63;8.27;;;;;;;;;;5115436;28;20027;-74
2023/08/31 02:30:20;;;;;;;12.38;8.07;;;;;;;;;;5114643;28;20027;-74
2023/08/31 02:32:47;;;;;;;11.32;8.27;;;;;;;;;;5115038;28;20040;-74
2023/08/31 02:35:13;;;;;;;15.93;7.88;;;;;;;;;;5115373;28;20347;-74
2023/08/31 02:37:39;;;;;;;13.98;8.98;;;;;;;;;;5114878;28;20153;-74
2023/08/31 02:40:06;;;;;;;14.18;8.10;;;;;;;;;;5115458;28;20035;-74
2023/08/31 02:42:32;;;;;;;12.75;7.40;;;;;;;;;;5114821;28;20020;-74
2023/08/31 02:44:58;;;;;;;16.98;8.45;;;;;;;;;;5115504;28;20023;-78
2023/08/31 02:47:24;;;;;;;14.63;8.57;;;;;;;;;;5115734;28;20020;-74
2023/08/31 02:49:50;;;;;;;12.95;7.75;;;;;;;;;;5116130;28;20072;-73
2023/08/31 02:52:16;;;;;;;17.80;8.25;;;;;;;;;;5116606;28;20102;-77
2023/08/31 02:54:42;;;;;;;18.63;8.38;;;;;;;;;;5100088;28;20112;-76
2023/08/31 02:57:08;;;;;;;18.85;8.15;;;;;;;;;;5123125;28;20074;-75
2023/08/31 02:59:35;;;;;;;13.63;7.30;;;;;;;;;;5122334;28;20024;-75
2023/08/31 03:02:02;;;;;;;14.10;7.68;;;;;;;;;;5119338;28;20035;-76
2023/08/31 03:04:28;;;;;;;15.02;7.95;;;;;;;;;;5123488;28;20016;-72
2023/08/31 03:06:54;;;;;;;17.42;8.02;;;;;;;;;;5123848;28;20072;-74
2023/08/31 03:09:20;;;;;;;16.98;7.80;;;;;;;;;;5127261;28;20063;-74
2023/08/31 03:11:46;;;;;;;13.65;7.35;;;;;;;;;;5123301;28;20019;-73
2023/08/31 03:14:12;;;;;;;11.70;7.30;;;;;;;;;;5118825;28;20062;-74
2023/08/31 03:16:38;;;;;;;17.17;7.28;;;;;;;;;;5119755;28;20039;-75
2023/08/31 03:19:04;;;;;;;16.88;7.25;;;;;;;;;;5114798;28;20027;-75
2023/08/31 03:21:30;;;;;;;15.90;7.30;;;;;;;;;;5120984;28;20035;-77
2023/08/31 03:23:56;;;;;;;15.88;7.85;;;;;;;;;;5119120;28;20024;-76
2023/08/31 03:26:24;;;;;;;13.98;7.40;;;;;;;;;;5125517;28;20480;-76
2023/08/31 03:28:50;;;;;;;15.40;7.40;;;;;;;;;;5119579;28;20019;-77
2023/08/31 03:31:16;;;;;;;15.48;7.25;;;;;;;;;;5127380;28;20038;-77
2023/08/31 03:33:42;;;;;;;11.90;7.03;;;;;;;;;;5125422;28;20024;-77
2023/08/31 03:36:08;;;;;;;12.55;6.43;;;;;;;;;;5120500;28;20523;-78
2023/08/31 03:38:37;;;;;;;16.95;7.47;;;;;;;;;;5117351;28;20461;-79
2023/08/31 03:41:04;;;;;;;12.48;6.47;;;;;;;;;;5119714;28;20019;-79
2023/08/31 03:43:30;;;;;;;11.95;6.15;;;;;;;;;;5122371;28;20031;-76
2023/08/31 03:45:57;;;;;;;11.95;6.15;;;;;;;;;;5097988;28;20027;-77
2023/08/31 03:48:24;;;;;;;18.02;6.90;;;;;;;;;;5118304;28;20066;-75
2023/08/31 03:50:51;;;;;;;15.00;6.05;;;;;;;;;;5116964;28;20102;-76
2023/08/31 03:53:17;;;;;;;13.00;5.40;;;;;;;;;;5116812;28;20027;-74
2023/08/31 03:55:43;;;;;;;12.70;5.47;;;;;;;;;;5118974;28;20392;-75
2023/08/31 03:58:09;;;;;;;9.88;5.13;;;;;;;;;;5119600;28;20044;-76
2023/08/31 04:00:35;;;;;;;12.70;5.47;;;;;;;;;;5118885;28;20027;-75
2023/08/31 04:03:01;;;;;;;10.57;5.03;;;;;;;;;;5098612;28;20110;-75
2023/08/31 04:05:27;;;;;;;10.48;5.00;;;;;;;;;;5115744;28;20486;-74
2023/08/31 04:07:53;;;;;;;16.60;5.45;;;;;;;;;;5115074;28;20026;-74
2023/08/31 04:10:19;;;;;;;14.25;4.80;;;;;;;;;;5114453;28;20051;-74
2023/08/31 04:12:45;;;;;;;12.50;4.28;;;;;;;;;;5114586;28;20023;-75
2023/08/31 04:15:13;;;;;;;14.93;4.88;;;;;;;;;;5096135;28;20024;-75
2023/08/31 04:17:39;;;;;;;12.05;5.18;;;;;;;;;;5113374;28;20019;-75
2023/08/31 04:20:05;;;;;;;15.60;5.10;;;;;;;;;;5113502;28;20019;-74
2023/08/31 04:22:31;;;;;;;16.27;4.70;;;;;;;;;;5113017;28;20051;-75
2023/08/31 04:24:57;;;;;;;16.38;4.78;;;;;;;;;;5113346;28;20048;-74
2023/08/31 04:27:23;;;;;;;9.45;4.32;;;;;;;;;;5113095;28;20034;-74
2023/08/31 04:29:49;;;;;;;8.02;4.45;;;;;;;;;;5113075;28;20077;-73
2023/08/31 04:32:15;;;;;;;13.73;4.55;;;;;;;;;;5112021;28;20027;-73
2023/08/31 04:34:41;;;;;;;16.60;5.03;;;;;;;;;;5113185;28;20084;-73
2023/08/31 04:37:07;;;;;;;9.35;4.45;;;;;;;;;;5114404;28;20381;-74
2023/08/31 04:39:33;;;;;;;16.27;4.90;;;;;;;;;;5097007;28;20016;-76
2023/08/31 04:41:59;;;;;;;13.77;5.80;;;;;;;;;;5114523;28;20034;-75
2023/08/31 04:44:25;;;;;;;12.77;4.63;;;;;;;;;;5098431;28;20111;-74
2023/08/31 04:46:51;;;;;;;13.73;4.40;;;;;;;;;;5096834;28;20153;-74
2023/08/31 04:49:18;;;;;;;12.52;5.05;;;;;;;;;;5114688;28;20049;-73
2023/08/31 04:51:44;;;;;;;9.75;4.55;;;;;;;;;;5115131;28;20435;-76
2023/08/31 04:54:10;;;;;;;15.57;4.82;;;;;;;;;;5110486;28;20038;-77
2023/08/31 04:56:37;;;;;;;14.38;5.13;;;;;;;;;;5113252;28;20499;-76
2023/08/31 04:59:03;;;;;;;12.57;4.95;;;;;;;;;;5112399;28;20156;-76
2023/08/31 05:01:29;;;;;;;9.73;5.47;;;;;;;;;;5095937;28;20076;-74
2023/08/31 05:03:55;;;;;;;17.15;5.35;;;;;;;;;;5096004;28;20069;-76
2023/08/31 05:06:21;;;;;;;14.05;5.80;;;;;;;;;;5115451;28;20027;-74
2023/08/31 05:08:51;;;;;;;10.27;5.18;;;;;;;;;;5097595;28;20541;-76
2023/08/31 05:11:17;;;;;;;14.05;5.55;;;;;;;;;;5118944;28;20031;-76
2023/08/31 05:13:43;;;;;;;16.95;6.32;;;;;;;;;;5116643;28;20028;-75
2023/08/31 05:16:09;;;;;;;11.85;5.75;;;;;;;;;;5095957;28;20185;-74
2023/08/31 05:18:35;;;;;;;14.27;4.97;;;;;;;;;;5112127;28;20069;-77
2023/08/31 05:21:02;;;;;;;15.13;5.50;;;;;;;;;;5116571;28;20019;-78
2023/08/31 05:23:28;;;;;;;16.58;5.43;;;;;;;;;;5096273;28;20027;-76
2023/08/31 05:25:56;;;;;;;12.88;6.00;;;;;;;;;;5111824;28;20488;-77
2023/08/31 05:28:22;;;;;;;15.25;6.03;;;;;;;;;;5113502;28;20020;-78
2023/08/31 05:30:51;;;;;;;13.18;6.13;;;;;;;;;;5113767;28;20444;-79
2023/08/31 05:33:18;;;;;;;11.02;5.28;;;;;;;;;;5113427;28;20088;-75
2023/08/31 05:35:44;;;;;;;16.67;6.05;;;;;;;;;;5112333;28;20038;-75
2023/08/31 05:38:10;;;;;;;18.92;6.13;;;;;;;;;;5121682;28;20026;-75
2023/08/31 05:40:36;;;;;;;13.73;5.80;;;;;;;;;;5116991;28;20035;-76
2023/08/31 05:43:05;;;;;;;15.05;6.07;;;;;;;;;;5112649;28;20098;-76
2023/08/31 05:45:34;;;;;;;14.60;6.45;;;;;;;;;;5118844;28;20488;-75
2023/08/31 05:48:00;;;;;;;13.57;5.93;;;;;;;;;;5126125;28;20153;-73
2023/08/31 05:50:27;;;;;;;21.38;6.40;;;;;;;;;;5119529;28;20030;-77
2023/08/31 05:52:54;;;;;;;13.82;5.70;;;;;;;;;;5115447;28;20379;-78
2023/08/31 05:55:20;;;;;;;13.63;5.90;;;;;;;;;;5118042;28;20020;-76
2023/08/31 05:57:46;;;;;;;15.88;6.00;;;;;;;;;;5117733;28;20031;-77
2023/08/31 06:00:12;;;;;;;13.00;5.80;;;;;;;;;;5112623;28;20182;-77
2023/08/31 06:02:38;;;;;;;14.30;6.03;;;;;;;;;;5115040;28;20024;-75
2023/08/31 06:05:05;;;;;;;19.70;6.47;;;;;;;;;;5117240;28;20114;-76
2023/08/31 06:07:31;;;;;;;12.98;5.53;;;;;;;;;;5116479;28;20118;-74
2023/08/31 06:09:57;;;;;;;13.95;5.93;;;;;;;;;;5117210;28;20434;-78
2023/08/31 06:12:23;;;;;;;18.58;5.80;;;;;;;;;;5120241;28;20452;-76
2023/08/31 06:14:49;;;;;;;17.23;6.57;;;;;;;;;;5117557;28;20036;-73
2023/08/31 06:17:15;;;;;;;13.90;5.93;;;;;;;;;;5117768;28;20035;-74
2023/08/31 06:19:42;;;;;;;19.27;5.82;;;;;;;;;;5117050;28;20107;-76
2023/08/31 06:22:08;;;;;;;13.07;5.35;;;;;;;;;;5116907;28;20015;-75
2023/08/31 06:24:35;;;;;;;13.63;5.43;;;;;;;;;;5118055;28;20027;-78
2023/08/31 06:27:01;;;;;;;15.73;5.38;;;;;;;;;;5117526;28;20028;-75
2023/08/31 06:29:27;;;;;;;21.92;5.97;;;;;;;;;;5116854;28;20305;-74
2023/08/31 06:31:53;;;;;;;11.98;5.20;;;;;;;;;;5097814;28;20024;-77
2023/08/31 06:34:19;;;;;;;13.88;5.50;;;;;;;;;;5116802;28;20027;-74
2023/08/31 06:36:45;;;;;;;17.65;5.38;;;;;;;;;;5115921;28;20026;-75
2023/08/31 06:39:11;;;;;;;14.45;5.65;;;;;;;;;;5116056;28;20015;-78
2023/08/31 06:41:37;;;;;;;17.77;5.88;;;;;;;;;;5116721;28;20465;-73
2023/08/31 06:44:04;;;;;;;14.30;5.45;;;;;;;;;;5115514;28;20024;-75
2023/08/31 06:46:33;;;;;;;13.88;6.00;;;;;;;;;;5115544;28;20031;-76
2023/08/31 06:48:59;;;;;;;11.27;4.90;;;;;;;;;;5114691;28;20024;-76
2023/08/31 06:51:25;;;;;;;14.20;5.07;;;;;;;;;;5114588;28;20050;-69
2023/08/31 06:53:51;;;;;;;16.02;5.47;;;;;;;;;;5114508;28;20035;-73
2023/08/31 06:56:17;;;;;;;18.23;5.40;;;;;;;;;;5113557;28;20439;-72
2023/08/31 06:58:43;;;;;;;13.32;5.07;;;;;;;;;;5115050;28;20060;-76
2023/08/31 07:01:09;;;;;;;16.23;5.30;;;;;;;;;;5116019;28;20430;-74
2023/08/31 07:03:35;;;;;;;13.50;4.60;;;;;;;;;;5114867;28;20024;-75
2023/08/31 07:06:02;;;;;;;12.18;4.82;;;;;;;;;;5117432;28;20027;-76
2023/08/31 07:08:30;;;;;;;12.93;4.80;;;;;;;;;;5116988;28;20027;-80
2023/08/31 07:10:56;;;;;;;16.70;4.63;;;;;;;;;;5115666;28;20028;-74
2023/08/31 07:13:22;;;;;;;14.77;5.97;;;;;;;;;;5114708;28;20027;-75
2023/08/31 07:15:49;;;;;;;11.02;3.80;;;;;;;;;;5115109;28;20031;-73
2023/08/31 07:18:15;;;;;;;12.13;3.85;;;;;;;;;;5116320;28;20031;-74
2023/08/31 07:20:41;;;;;;;9.35;3.70;;;;;;;;;;5114748;28;20016;-75
2023/08/31 07:23:07;;;;;;;9.93;3.47;;;;;;;;;;5114752;28;20473;-73
2023/08/31 07:25:33;;;;;;;14.15;3.65;;;;;;;;;;5114307;28;20028;-73
2023/08/31 07:27:59;;;;;;;11.38;3.17;;;;;;;;;;5113988;28;20019;-77
2023/08/31 07:30:25;;;;;;;8.65;3.17;;;;;;;;;;5114150;28;20530;-78
2023/08/31 07:32:51;;;;;;;6.30;2.53;;;;;;;;;;5114091;28;20027;-77
2023/08/31 07:35:17;;;;;;;12.18;2.85;;;;;;;;;;5114803;28;20076;-77
2023/08/31 07:37:43;;;;;;;10.50;3.20;;;;;;;;;;5114645;28;20024;-76
2023/08/31 07:40:10;;;;;;;6.75;2.47;;;;;;;;;;5115126;28;20020;-77
2023/08/31 07:42:36;;;;;;;8.60;2.47;;;;;;;;;;5115807;28;20492;-77
2023/08/31 07:45:02;;;;;;;8.13;2.42;;;;;;;;;;5115364;28;20024;-78
2023/08/31 07:47:28;;;;;;;6.95;2.50;;;;;;;;;;5116090;28;20020;-77
2023/08/31 07:49:54;;;;;;;10.02;2.58;;;;;;;;;;5098048;28;20032;-77
2023/08/31 07:52:20;;;;;;;11.63;2.50;;;;;;;;;;5115252;28;20084;-73
2023/08/31 07:54:46;;;;;;;7.40;2.85;;;;;;;;;;5118951;28;20111;-72
2023/08/31 07:57:12;;;;;;;6.22;2.58;;;;;;;;;;5097730;28;20136;-72
2023/08/31 07:59:40;;;;;;;15.57;2.60;;;;;;;;;;5113968;28;20431;-73
2023/08/31 08:02:06;;;;;;;10.82;2.63;;;;;;;;;;5115596;28;20406;-73
2023/08/31 08:04:32;;;;;;;7.63;2.53;;;;;;;;;;5113891;28;20030;-75
2023/08/31 08:06:58;;;;;;;11.07;2.85;;;;;;;;;;5114152;28;20356;-72
2023/08/31 08:09:24;;;;;;;9.27;2.50;;;;;;;;;;5113665;28;20098;-73
2023/08/31 08:11:50;;;;;;;8.73;2.67;;;;;;;;;;5114307;28;20035;-74
2023/08/31 08:14:16;;;;;;;6.35;2.90;;;;;;;;;;5113926;28;20066;-74
2023/08/31 08:16:42;;;;;;;6.57;2.47;;;;;;;;;;5114801;28;20051;-72
2023/08/31 08:19:08;;;;;;;7.75;2.35;;;;;;;;;;5115106;28;20100;-76
2023/08/31 08:21:35;;;;;;;6.57;2.80;;;;;;;;;;5115143;28;20020;-76
2023/08/31 08:24:01;;;;;;;6.38;2.63;;;;;;;;;;5114501;28;20059;-74
2023/08/31 08:26:27;;;;;;;8.18;2.45;;;;;;;;;;5096744;28;20032;-74
2023/08/31 08:28:53;;;;;;;8.90;2.90;;;;;;;;;;5114290;28;20114;-77
2023/08/31 08:31:19;;;;;;;13.00;3.30;;;;;;;;;;5114464;28;20059;-78
2023/08/31 08:33:45;;;;;;;10.88;2.83;;;;;;;;;;5112313;28;20105;-74
2023/08/31 08:36:11;;;;;;;12.00;3.05;;;;;;;;;;5103232;27;20520;-74
2023/08/31 08:38:37;;;;;;;5.70;2.60;;;;;;;;;;5088341;27;20031;-74
2023/08/31 08:41:07;;;;;;;9.80;2.90;;;;;;;;;;5114129;27;20051;-72
2023/08/31 08:43:33;;;;;;;6.57;2.78;;;;;;;;;;5102626;27;20027;-74
2023/08/31 08:46:04;;;;;;;9.80;3.20;;;;;;;;;;5114960;27;20035;-74
2023/08/31 08:48:30;;;;;;;9.82;2.80;;;;;;;;;;5107609;27;20031;-73
2023/08/31 08:50:56;;;;;;;12.13;2.92;;;;;;;;;;5099119;27;20057;-73
2023/08/31 08:53:22;;;;;;;11.07;2.60;;;;;;;;;;5097394;27;20031;-73
2023/08/31 08:55:48;;;;;;;9.82;2.53;;;;;;;;;;5092333;28;20060;-74
2023/08/31 08:58:14;;;;;;;7.45;2.85;;;;;;;;;;5101739;27;20451;-73
2023/08/31 09:00:41;;;;;;;6.82;2.70;;;;;;;;;;5104925;27;20052;-73
2023/08/31 09:03:07;;;;;;;8.88;3.33;;;;;;;;;;5099906;27;20142;-72
2023/08/31 09:05:33;;;;;;;9.75;3.35;;;;;;;;;;5092251;28;20095;-73
2023/08/31 09:08:15;;;;;;;11.43;3.72;;;;;;;;;;5091626;28;20016;-72
2023/08/31 09:10:42;;;;;;;9.48;3.35;;;;;;;;;;5093329;28;20023;-73
2023/08/31 09:13:11;;;;;;;10.02;3.10;;;;;;;;;;5079260;28;20161;-73
2023/08/31 09:15:42;;;;;;;7.05;2.75;;;;;;;;;;5098381;28;20039;-73
2023/08/31 09:18:08;;;;;;;7.40;2.60;;;;;;;;;;5097903;28;20855;-74
2023/08/31 09:20:47;;;;;;;9.75;2.95;;;;;;;;;;5098783;28;20099;-74
2023/08/31 09:23:14;;;;;;;15.13;3.10;;;;;;;;;;5097526;28;20042;-79
2023/08/31 09:25:48;;;;;;;9.95;3.25;;;;;;;;;;5092717;28;20028;-75
2023/08/31 09:28:14;;;;;;;12.20;3.30;;;;;;;;;;5092395;28;20076;-73
2023/08/31 09:30:40;;;;;;;6.50;3.00;;;;;;;;;;5092002;28;20619;-73
2023/08/31 09:33:24;;;;;;;10.20;3.42;;;;;;;;;;5091625;28;20032;-73
2023/08/31 09:35:52;;;;;;;9.30;3.10;;;;;;;;;;5091936;28;20114;-74
2023/08/31 09:38:19;;;;;;;11.07;3.30;;;;;;;;;;5092219;28;20450;-74
2023/08/31 09:40:45;;;;;;;9.35;2.40;;;;;;;;;;5092243;28;20020;-74
2023/08/31 09:43:11;;;;;;;7.72;2.53;;;;;;;;;;5091389;28;20020;-74
2023/08/31 09:45:37;;;;;;;11.27;2.78;;;;;;;;;;5074225;28;20035;-75
2023/08/31 09:48:04;;;;;;;9.77;2.75;;;;;;;;;;5094125;28;20035;-77
2023/08/31 09:50:31;;;;;;;9.60;2.60;;;;;;;;;;5084148;28;20118;-74
2023/08/31 09:53:00;;;;;;;7.07;2.90;;;;;;;;;;5092270;28;20374;-74
2023/08/31 09:55:28;;;;;;;6.88;2.75;;;;;;;;;;5093026;28;20016;-75
2023/08/31 09:57:56;;;;;;;10.50;2.65;;;;;;;;;;5092272;28;20020;-79
2023/08/31 10:00:22;;;;;;;8.43;2.60;;;;;;;;;;5091607;28;20065;-75
2023/08/31 10:02:49;;;;;;;8.07;2.90;;;;;;;;;;5091418;28;20099;-76
2023/08/31 10:05:15;;;;;;;8.02;2.58;;;;;;;;;;5091762;28;20025;-73
2023/08/31 10:07:43;;;;;;;12.60;2.53;;;;;;;;;;5091800;28;20059;-75
2023/08/31 10:10:09;;;;;;;10.45;2.72;;;;;;;;;;5091516;28;20036;-75
2023/08/31 10:12:36;;;;;;;8.02;2.60;;;;;;;;;;5091827;28;20060;-75
2023/08/31 10:15:03;;;;;;;9.15;2.70;;;;;;;;;;5092017;28;20143;-75
2023/08/31 10:17:29;;;;;;;5.35;2.55;;;;;;;;;;5092165;28;20095;-77
2023/08/31 10:19:55;;;;;;;7.88;2.97;;;;;;;;;;5091428;28;20021;-74
2023/08/31 10:22:21;;;;;;;8.15;2.47;;;;;;;;;;5090945;28;20024;-74
2023/08/31 10:24:57;;;;;;;9.38;3.08;;;;;;;;;;5091686;28;20017;-77
2023/08/31 10:27:23;;;;;;;10.63;3.70;;;;;;;;;;5091639;28;20024;-78
2023/08/31 10:29:49;;;;;;;8.85;2.88;;;;;;;;;;5092492;28;20032;-76
2023/08/31 10:32:18;;;;;;;12.55;3.10;;;;;;;;;;5095291;28;20051;-76
2023/08/31 10:34:46;;;;;;;9.23;2.55;;;;;;;;;;5108432;28;20073;-75
2023/08/31 10:37:22;;;;;;;7.82;2.50;;;;;;;;;;5114281;28;20023;-77
2023/08/31 10:39:48;;;;;;;8.65;2.90;;;;;;;;;;5113459;28;20504;-76
2023/08/31 10:42:14;;;;;;;9.50;3.15;;;;;;;;;;5114808;28;20034;-73
2023/08/31 10:44:43;;;;;;;10.63;3.05;;;;;;;;;;5114007;28;20103;-74
2023/08/31 10:47:09;;;;;;;8.15;3.22;;;;;;;;;;5113573;28;20019;-74
2023/08/31 10:49:37;;;;;;;8.07;2.67;;;;;;;;;;5113688;28;20039;-74
2023/08/31 10:52:18;;;;;;;12.18;2.45;;;;;;;;;;5113793;28;20035;-74
2023/08/31 10:54:46;;;;;;;3.90;2.00;;;;;;;;;;5111841;28;20023;-72
2023/08/31 10:57:13;;;;;;;5.60;2.15;;;;;;;;;;5113304;28;20016;-73
2023/08/31 10:59:42;;;;;;;6.97;1.98;;;;;;;;;;5113387;28;20107;-74
2023/08/31 11:02:08;;;;;;;7.93;2.00;;;;;;;;;;5112928;28;20042;-73
2023/08/31 11:04:54;;;;;;;6.28;2.08;;;;;;;;;;5113359;28;20106;-73
2023/08/31 11:07:20;;;;;;;5.32;1.75;;;;;;;;;;5111883;28;20810;-73
2023/08/31 11:09:46;;;;;;;5.57;1.90;;;;;;;;;;5112781;28;20027;-73
2023/08/31 11:12:13;;;;;;;7.75;2.00;;;;;;;;;;5111020;28;20055;-73
2023/08/31 11:14:39;;;;;;;5.65;1.70;;;;;;;;;;5113137;28;20032;-73
2023/08/31 11:17:06;;;;;;;5.15;1.70;;;;;;;;;;5112857;28;20023;-73
2023/08/31 11:19:32;;;;;;;5.05;1.60;;;;;;;;;;5112773;28;20587;-73
2023/08/31 11:21:59;;;;;;;7.45;1.95;;;;;;;;;;5109979;28;20460;-71
2023/08/31 11:24:25;;;;;;;5.47;1.58;;;;;;;;;;5114063;28;20031;-73
2023/08/31 11:26:51;;;;;;;5.53;2.10;;;;;;;;;;5114934;28;20016;-73
2023/08/31 11:29:18;;;;;;;6.15;1.40;;;;;;;;;;5114344;28;20051;-72
2023/08/31 11:31:44;;;;;;;5.13;1.48;;;;;;;;;;5113585;28;20146;-73
2023/08/31 11:34:13;;;;;;;5.15;1.63;;;;;;;;;;5113048;28;20021;-73
2023/08/31 11:36:40;;;;;;;7.75;1.60;;;;;;;;;;5113172;28;20015;-74
2023/08/31 11:39:06;;;;;;;3.97;1.55;;;;;;;;;;5113412;28;20092;-73
2023/08/31 11:41:36;;;;;;;3.22;1.30;;;;;;;;;;5112722;28;20028;-74
2023/08/31 11:44:04;;;;;;;4.95;2.03;;;;;;;;;;5113450;28;20026;-74
2023/08/31 11:46:31;;;;;;;4.18;1.30;;;;;;;;;;5113518;28;20267;-75
2023/08/31 11:48:57;;;;;;;4.10;1.08;;;;;;;;;;5113211;28;20046;-75
2023/08/31 11:51:23;;;;;;;4.55;1.40;;;;;;;;;;5113307;28;20094;-75
2023/08/31 11:53:49;;;;;;;5.47;1.20;;;;;;;;;;5112639;28;20016;-75
2023/08/31 11:56:15;;;;;;;4.97;1.05;;;;;;;;;;5113115;28;20497;-74
2023/08/31 11:58:46;;;;;;;3.83;1.38;;;;;;;;;;5113079;28;20016;-73
2023/08/31 12:01:18;;;;;;;3.28;1.35;;;;;;;;;;5112787;28;20377;-75
2023/08/31 12:03:45;;;;;;;13.23;4.15;;;;;;;;;;5111385;28;20020;-74
2023/08/31 12:06:11;;;;;;;4.47;1.60;;;;;;;;;;5112724;28;20084;-74
2023/08/31 12:08:38;;;;;;;6.28;1.75;;;;;;;;;;5112777;28;20023;-73
2023/08/31 12:11:06;;;;;;;1.35;0.95;;;;;;;;;;5113329;28;20073;-73
2023/08/31 12:13:32;;;;;;;3.03;1.10;;;;;;;;;;5113044;28;20028;-77
2023/08/31 12:15:58;;;;;;;2.28;0.98;;;;;;;;;;5113375;28;20019;-73
2023/08/31 12:18:24;;;;;;;6.63;1.55;;;;;;;;;;5113328;28;20386;-74
2023/08/31 12:20:51;;;;;;;4.60;1.30;;;;;;;;;;5113694;28;20016;-74
2023/08/31 12:23:19;;;;;;;6.15;1.50;;;;;;;;;;5113122;28;20020;-74
2023/08/31 12:25:52;;;;;;;6.22;1.20;;;;;;;;;;5113691;28;20531;-77
2023/08/31 12:28:19;;;;;;;2.72;1.17;;;;;;;;;;5114143;28;20388;-75
2023/08/31 12:30:49;;;;;;;4.70;1.30;;;;;;;;;;5113468;28;20164;-76
2023/08/31 12:33:15;;;;;;;5.15;1.30;;;;;;;;;;5113628;28;20019;-74
2023/08/31 12:35:41;;;;;;;3.28;1.38;;;;;;;;;;5112699;28;20043;-74
2023/08/31 12:38:07;;;;;;;2.85;1.10;;;;;;;;;;5113034;28;20488;-76
2023/08/31 12:40:33;;;;;;;2.55;0.82;;;;;;;;;;5114505;28;20202;-77
2023/08/31 12:42:59;;;;;;;2.78;1.77;;;;;;;;;;5094724;28;20477;-75
2023/08/31 12:45:25;;;;;;;2.60;1.17;;;;;;;;;;5113170;28;20028;-74
2023/08/31 12:47:51;;;;;;;2.30;1.13;;;;;;;;;;5113468;28;20491;-73
2023/08/31 12:50:17;;;;;;;2.25;1.20;;;;;;;;;;5113826;28;20438;-75
2023/08/31 12:52:45;;;;;;;6.80;1.77;;;;;;;;;;5112683;28;20024;-74
2023/08/31 12:55:12;;;;;;;6.93;1.55;;;;;;;;;;5110154;28;20491;-74
2023/08/31 12:57:38;;;;;;;1.48;1.10;;;;;;;;;;5113045;28;20020;-75
2023/08/31 13:00:14;;;;;;;3.22;1.00;;;;;;;;;;5113029;28;20072;-75
2023/08/31 13:02:40;;;;;;;2.42;1.00;;;;;;;;;;5110360;28;20051;-75
2023/08/31 13:05:07;;;;;;;2.28;1.20;;;;;;;;;;5110970;28;20023;-76
2023/08/31 13:07:33;;;;;;;4.80;1.17;;;;;;;;;;5112781;28;20054;-75
2023/08/31 13:10:03;;;;;;;2.28;1.10;;;;;;;;;;5113286;28;20024;-75
2023/08/31 13:12:30;;;;;;;2.20;1.23;;;;;;;;;;5110612;28;20035;-74
2023/08/31 13:14:56;;;;;;;2.20;1.40;;;;;;;;;;5093869;28;20023;-75
2023/08/31 13:17:26;;;;;;;1.40;0.90;;;;;;;;;;5112851;28;21626;-75
2023/08/31 13:19:52;;;;;;;2.58;0.88;;;;;;;;;;5106071;28;20019;-76
2023/08/31 13:22:18;;;;;;;1.73;1.17;;;;;;;;;;5110780;28;20016;-75
2023/08/31 13:24:44;;;;;;;1.10;0.70;;;;;;;;;;5112653;28;20057;-76
2023/08/31 13:27:10;;;;;;;5.55;0.82;;;;;;;;;;5112019;28;20062;-76
2023/08/31 13:29:36;;;;;;;2.58;1.02;;;;;;;;;;5110908;28;20108;-74
2023/08/31 13:32:02;;;;;;;2.53;0.75;;;;;;;;;;5111971;28;20579;-75
2023/08/31 13:34:29;;;;;;;4.72;0.90;;;;;;;;;;5111569;28;20357;-76
2023/08/31 13:36:55;;;;;;;2.47;1.10;;;;;;;;;;5112525;28;20024;-74
2023/08/31 13:39:25;;;;;;;2.90;1.20;;;;;;;;;;5111483;28;20028;-73
2023/08/31 13:41:53;;;;;;;3.88;1.10;;;;;;;;;;5111389;28;20391;-75
2023/08/31 13:44:22;;;;;;;3.33;0.90;;;;;;;;;;5114266;28;20027;-74
2023/08/31 13:46:49;;;;;;;1.98;0.75;;;;;;;;;;5112658;28;20016;-74
2023/08/31 13:49:15;;;;;;;2.45;0.73;;;;;;;;;;5110212;28;20024;-74
2023/08/31 13:51:42;;;;;;;1.38;0.70;;;;;;;;;;5112069;28;20020;-74
2023/08/31 13:54:08;;;;;;;4.32;0.90;;;;;;;;;;5112430;28;20350;-73
2023/08/31 13:56:34;;;;;;;2.08;0.70;;;;;;;;;;5109826;28;20073;-74
2023/08/31 13:59:00;;;;;;;2.72;0.90;;;;;;;;;;5111880;28;20091;-74
2023/08/31 14:01:26;;;;;;;4.85;1.40;;;;;;;;;;5111924;28;20031;-76
2023/08/31 14:03:53;;;;;;;3.03;1.00;;;;;;;;;;5111833;28;20032;-78
2023/08/31 14:06:19;;;;;;;2.15;0.88;;;;;;;;;;5115736;28;20027;-74
2023/08/31 14:08:45;;;;;;;4.15;1.10;;;;;;;;;;5116213;28;20028;-76
2023/08/31 14:11:11;;;;;;;3.10;1.40;;;;;;;;;;5116529;28;20030;-76
2023/08/31 14:13:37;;;;;;;4.30;1.65;;;;;;;;;;5111760;28;20032;-75
2023/08/31 14:16:03;;;;;;;3.22;1.20;;;;;;;;;;5095209;28;20111;-74
2023/08/31 14:18:31;;;;;;;2.15;0.88;;;;;;;;;;5094895;28;20035;-73
2023/08/31 14:20:58;;;;;;;3.30;1.17;;;;;;;;;;5099036;28;20080;-74
2023/08/31 14:23:24;;;;;;;3.72;1.30;;;;;;;;;;5114115;28;20024;-73
2023/08/31 14:25:50;;;;;;;1.95;0.95;;;;;;;;;;5115345;28;20051;-74
2023/08/31 14:28:16;;;;;;;3.13;1.00;;;;;;;;;;5115410;28;20023;-74
2023/08/31 14:30:42;;;;;;;3.20;0.98;;;;;;;;;;5114805;28;20049;-74
2023/08/31 14:33:08;;;;;;;2.58;0.95;;;;;;;;;;5114864;28;20657;-73